Time;durP1;ratioP1;P1;durP2;ratioP2;P2;SDS_P1;SDS_P2;PMS_P1;PMS_P2;Temp;Humidity;BMP_temperature;BMP_pressure;BME280_temperature;BME280_humidity;BME280_pressure;Samples;Min_cycle;Max_cycle;Signal;HPM_P1;HPM_P2
2023/06/27 00:01:42;;;;;;;3.60;1.30;;;;;;;16.49;100.00;100046.29;106485;1284;58353;-83
2023/06/27 00:04:09;;;;;;;2.80;1.60;;;;;;;16.48;100.00;100043.67;107025;1285;58258;-82
2023/06/27 00:06:40;;;;;;;5.30;1.60;;;;;;;16.46;100.00;100037.67;106928;1284;73377;-82
2023/06/27 00:09:10;;;;;;;4.50;1.60;;;;;;;16.43;100.00;100044.95;106984;1285;61930;-82
2023/06/27 00:11:37;;;;;;;6.40;1.60;;;;;;;16.40;100.00;100047.40;106949;1285;60910;-82
2023/06/27 00:14:04;;;;;;;4.10;1.70;;;;;;;16.39;100.00;100043.42;106532;1286;74479;-82
2023/06/27 00:16:32;;;;;;;8.30;1.70;;;;;;;16.36;100.00;100039.02;106920;1284;74361;-82
2023/06/27 00:19:02;;;;;;;3.00;1.90;;;;;;;16.31;100.00;100040.28;106906;1285;74008;-82
2023/06/27 00:21:29;;;;;;;3.40;1.50;;;;;;;16.28;100.00;100044.55;106907;1285;62247;-83
2023/06/27 00:23:58;;;;;;;3.70;1.50;;;;;;;16.24;100.00;100047.98;106917;1284;61094;-82
2023/06/27 00:26:24;;;;;;;4.20;1.50;;;;;;;16.18;100.00;100038.83;106924;1285;73668;-82
2023/06/27 00:28:50;;;;;;;4.10;1.40;;;;;;;16.16;100.00;100035.14;106552;1285;58576;-82
2023/06/27 00:31:15;;;;;;;5.60;1.60;;;;;;;16.13;100.00;100030.53;106913;1284;58609;-82
2023/06/27 00:33:41;;;;;;;4.80;1.70;;;;;;;16.10;100.00;100037.98;106532;1284;58361;-82
2023/06/27 00:36:06;;;;;;;2.40;1.50;;;;;;;16.08;100.00;100036.63;106981;1285;58358;-82
2023/06/27 00:38:32;;;;;;;2.40;1.60;;;;;;;16.04;100.00;100040.98;106446;1286;74294;-83
2023/06/27 00:40:58;;;;;;;10.30;1.80;;;;;;;16.01;100.00;100041.28;106940;1285;58233;-82
2023/06/27 00:43:23;;;;;;;2.60;1.50;;;;;;;15.99;100.00;100041.65;106922;1284;58254;-83
2023/06/27 00:45:52;;;;;;;2.50;1.50;;;;;;;15.96;100.00;100037.91;106948;1285;58282;-82
2023/06/27 00:48:18;;;;;;;4.10;1.40;;;;;;;15.92;100.00;100036.42;106973;1285;58278;-82
2023/06/27 00:50:45;;;;;;;2.50;1.40;;;;;;;15.89;100.00;100034.71;106655;1286;58451;-82
2023/06/27 00:53:11;;;;;;;7.80;1.60;;;;;;;15.84;100.00;100031.98;106958;1285;58252;-82
2023/06/27 00:55:39;;;;;;;6.00;1.40;;;;;;;15.80;100.00;100028.73;106908;1285;58193;-82
2023/06/27 00:58:06;;;;;;;4.00;1.00;;;;;;;15.75;100.00;100028.75;106912;1284;61113;-82
2023/06/27 01:00:32;;;;;;;3.40;1.50;;;;;;;15.73;100.00;100030.48;106946;1285;74455;-82
2023/06/27 01:02:57;;;;;;;3.60;1.40;;;;;;;15.72;100.00;100031.70;106985;1285;58217;-82
2023/06/27 01:05:24;;;;;;;3.30;1.80;;;;;;;15.68;100.00;100032.54;106647;1284;58343;-83
2023/06/27 01:07:56;;;;;;;3.40;1.30;;;;;;;15.67;100.00;100033.52;106970;1284;58195;-82
2023/06/27 01:10:45;;;;;;;4.90;1.30;;;;;;;15.65;100.00;100040.96;106899;1284;60053;-82
2023/06/27 01:13:19;;;;;;;6.00;1.70;;;;;;;15.64;100.00;100039.28;106942;1285;74798;-82
2023/06/27 01:15:44;;;;;;;;;;;;;;;15.61;100.00;100045.88;106991;1285;74445;-82
2023/06/27 01:18:13;;;;;;;5.50;1.40;;;;;;;15.59;100.00;100041.16;106971;1284;58318;-80
2023/06/27 01:20:43;;;;;;;4.80;1.50;;;;;;;15.60;100.00;100038.36;106904;1284;62372;-81
2023/06/27 01:23:17;;;;;;;4.20;1.70;;;;;;;15.63;100.00;100039.43;106918;1285;60047;-82
2023/06/27 01:25:43;;;;;;;4.50;1.50;;;;;;;15.69;100.00;100041.27;106929;1285;74967;-82
2023/06/27 01:28:14;;;;;;;6.60;1.40;;;;;;;15.75;100.00;100036.94;106951;1285;58298;-82
2023/06/27 01:30:40;;;;;;;2.30;1.60;;;;;;;15.82;100.00;100036.95;106482;1284;73421;-82
2023/06/27 01:33:39;;;;;;;8.60;1.70;;;;;;;15.88;100.00;100037.30;106940;1285;61881;-83
2023/06/27 01:36:10;;;;;;;4.40;1.70;;;;;;;15.95;100.00;100041.14;106180;1291;59939;-82
2023/06/27 01:38:53;;;;;;;1.40;1.30;;;;;;;15.98;100.00;100041.50;106291;1291;74512;-81
2023/06/27 01:41:20;;;;;;;5.30;1.50;;;;;;;16.04;100.00;100043.58;106271;1291;73140;-82
2023/06/27 01:43:48;;;;;;;4.50;1.40;;;;;;;16.08;100.00;100044.52;106262;1291;73049;-83
2023/06/27 01:46:14;;;;;;;2.40;1.30;;;;;;;16.09;100.00;100042.64;106241;1291;61676;-83
2023/06/27 01:48:40;;;;;;;5.90;1.20;;;;;;;16.13;100.00;100042.70;106278;1290;58379;-82
2023/06/27 01:51:09;;;;;;;4.90;1.50;;;;;;;16.16;100.00;100042.05;106248;1290;58595;-83
2023/06/27 01:53:36;;;;;;;2.50;1.50;;;;;;;16.19;100.00;100044.63;106091;1292;72951;-83
2023/06/27 01:56:06;;;;;;;8.80;1.40;;;;;;;16.22;100.00;100051.52;106244;1291;73479;-81
2023/06/27 01:58:31;;;;;;;4.80;1.50;;;;;;;16.24;100.00;100054.06;106271;1291;61528;-82
2023/06/27 02:00:57;;;;;;;4.70;1.70;;;;;;;16.25;100.00;100057.61;106285;1291;58660;-82
2023/06/27 02:03:22;;;;;;;3.50;1.60;;;;;;;16.27;100.00;100059.95;106326;1290;58646;-83
2023/06/27 02:05:48;;;;;;;2.30;1.60;;;;;;;16.33;100.00;100055.08;106252;1291;58599;-82
2023/06/27 02:08:13;;;;;;;5.10;1.50;;;;;;;16.40;100.00;100054.92;106286;1290;58277;-83
2023/06/27 02:10:39;;;;;;;2.20;1.50;;;;;;;16.43;100.00;100057.61;106290;1290;59173;-83
2023/06/27 02:13:05;;;;;;;2.80;1.30;;;;;;;16.48;100.00;100056.23;106577;1286;58488;-82
2023/06/27 02:15:31;;;;;;;5.90;1.50;;;;;;;16.53;100.00;100060.55;106978;1286;58265;-83
2023/06/27 02:17:57;;;;;;;5.30;1.80;;;;;;;16.58;100.00;100062.11;106985;1285;58356;-83
2023/06/27 02:20:23;;;;;;;4.60;1.30;;;;;;;16.61;100.00;100062.58;106936;1284;58228;-83
2023/06/27 02:22:48;;;;;;;3.90;1.80;;;;;;;16.66;100.00;100062.48;106983;1285;58485;-83
2023/06/27 02:25:14;;;;;;;6.10;1.70;;;;;;;16.67;100.00;100056.91;107012;1284;58221;-83
2023/06/27 02:27:40;;;;;;;4.20;1.40;;;;;;;16.68;100.00;100058.90;106626;1286;71350;-82
2023/06/27 02:30:06;;;;;;;5.60;1.40;;;;;;;16.72;100.00;100056.98;106959;1284;58351;-83
2023/06/27 02:32:32;;;;;;;2.00;1.40;;;;;;;16.77;100.00;100057.48;106525;1286;58923;-82
2023/06/27 02:35:03;;;;;;;2.00;1.20;;;;;;;16.82;100.00;100058.95;106988;1284;58238;-83
2023/06/27 02:37:28;;;;;;;2.30;1.40;;;;;;;16.85;100.00;100060.17;106679;1284;74263;-83
2023/06/27 02:39:54;;;;;;;2.60;1.60;;;;;;;16.84;100.00;100062.01;106450;1284;58351;-83
2023/06/27 02:42:20;;;;;;;2.00;1.10;;;;;;;16.86;100.00;100065.64;106952;1285;58238;-83
2023/06/27 02:44:48;;;;;;;3.40;1.40;;;;;;;16.88;100.00;100065.73;106996;1285;58226;-83
2023/06/27 02:47:14;;;;;;;4.90;1.90;;;;;;;16.92;100.00;100063.98;106969;1284;58286;-83
2023/06/27 02:49:41;;;;;;;2.60;1.50;;;;;;;16.95;100.00;100063.66;106641;1286;58286;-82
2023/06/27 02:52:07;;;;;;;1.50;1.30;;;;;;;16.95;100.00;100067.70;106937;1284;58374;-83
2023/06/27 02:54:33;;;;;;;5.20;1.70;;;;;;;17.01;100.00;100067.33;106569;1288;58307;-82
2023/06/27 02:56:59;;;;;;;6.60;1.40;;;;;;;17.09;100.00;100066.34;106455;1287;58414;-82
2023/06/27 02:59:24;;;;;;;2.50;1.50;;;;;;;17.11;100.00;100068.30;106571;1289;58244;-82
2023/06/27 03:01:49;;;;;;;6.30;1.40;;;;;;;17.09;100.00;100071.36;106617;1288;58613;-83
2023/06/27 03:04:20;;;;;;;9.50;1.70;;;;;;;17.11;100.00;100070.54;106519;1289;63029;-83
2023/06/27 03:06:46;;;;;;;6.60;1.70;;;;;;;17.13;100.00;100066.53;106557;1289;60128;-82
2023/06/27 03:09:11;;;;;;;5.60;1.40;;;;;;;17.13;100.00;100063.81;106600;1288;58625;-82
2023/06/27 03:11:37;;;;;;;5.60;1.50;;;;;;;17.20;100.00;100062.04;106585;1288;58350;-83
2023/06/27 03:17:23;;;;;;;6.20;1.50;;;;;;;17.31;100.00;100067.13;106563;1289;60647;-83
2023/06/27 03:19:49;;;;;;;2.70;1.60;;;;;;;17.32;100.00;100067.48;106582;1290;59247;-83
2023/06/27 03:22:14;;;;;;;4.20;1.80;;;;;;;17.36;100.00;100065.05;106578;1287;58422;-83
2023/06/27 03:24:40;;;;;;;6.30;1.30;;;;;;;17.41;100.00;100065.41;106255;1286;58417;-83
2023/06/27 03:27:08;;;;;;;4.50;1.60;;;;;;;17.41;100.00;100061.25;106969;1285;58247;-82
2023/06/27 03:29:33;;;;;;;4.30;1.50;;;;;;;17.46;100.00;100067.98;106966;1285;60985;-82
2023/06/27 03:31:59;;;;;;;2.60;1.50;;;;;;;17.54;100.00;100067.89;106964;1286;58271;-82
2023/06/27 03:34:25;;;;;;;2.30;1.60;;;;;;;17.65;100.00;100066.73;106963;1285;58401;-83
2023/06/27 03:36:50;;;;;;;4.60;1.50;;;;;;;17.66;100.00;100066.80;106909;1286;58459;-83
2023/06/27 03:39:15;;;;;;;3.30;1.40;;;;;;;17.65;100.00;100072.29;106944;1284;58209;-83
2023/06/27 03:41:41;;;;;;;1.90;1.40;;;;;;;17.65;100.00;100064.79;106932;1285;73641;-83
2023/06/27 03:44:08;;;;;;;2.30;1.30;;;;;;;17.67;100.00;100068.34;106882;1285;58332;-83
2023/06/27 03:46:34;;;;;;;5.10;1.60;;;;;;;17.75;100.00;100063.98;106947;1286;58203;-83
2023/06/27 03:48:59;;;;;;;4.30;1.20;;;;;;;17.81;100.00;100064.69;106617;1286;58386;-83
2023/06/27 03:51:26;;;;;;;3.70;1.30;;;;;;;17.92;100.00;100063.73;106600;1285;58333;-83
2023/06/27 03:53:52;;;;;;;2.60;1.50;;;;;;;18.01;100.00;100069.56;106952;1285;58286;-82
2023/06/27 03:56:18;;;;;;;1.70;1.10;;;;;;;18.04;100.00;100073.95;106904;1285;58212;-83
2023/06/27 03:58:43;;;;;;;5.10;1.10;;;;;;;18.12;100.00;100073.23;106913;1285;58240;-84
2023/06/27 04:01:11;;;;;;;4.10;0.90;;;;;;;18.22;100.00;100080.20;106965;1284;58204;-83
2023/06/27 04:03:36;;;;;;;2.00;1.00;;;;;;;18.27;100.00;100079.34;106935;1285;73871;-84
2023/06/27 04:06:02;;;;;;;2.00;1.10;;;;;;;18.26;100.00;100075.32;106935;1286;58300;-83
2023/06/27 04:08:27;;;;;;;4.00;1.70;;;;;;;18.29;100.00;100073.48;106944;1284;58498;-84
2023/06/27 04:10:53;;;;;;;1.10;0.90;;;;;;;18.33;100.00;100070.41;106896;1285;58129;-84
2023/06/27 04:13:18;;;;;;;2.80;0.90;;;;;;;18.40;100.00;100069.96;107053;1286;58964;-82
2023/06/27 04:15:44;;;;;;;1.00;0.90;;;;;;;18.40;100.00;100064.70;106966;1285;74510;-82
2023/06/27 04:18:09;;;;;;;2.50;1.10;;;;;;;18.46;100.00;100063.77;106951;1285;58975;-84
2023/06/27 04:20:35;;;;;;;2.00;0.90;;;;;;;18.58;100.00;100063.48;106500;1290;58535;-84
2023/06/27 04:23:02;;;;;;;0.90;0.80;;;;;;;18.63;100.00;100061.29;107001;1285;58268;-82
2023/06/27 04:25:31;;;;;;;3.40;0.90;;;;;;;18.73;100.00;100062.39;106717;1286;58335;-83
2023/06/27 04:27:56;;;;;;;1.80;0.80;;;;;;;18.88;100.00;100057.56;106978;1286;58509;-84
2023/06/27 04:30:22;;;;;;;0.70;0.70;;;;;;;19.04;100.00;100059.77;106400;1286;58868;-84
2023/06/27 04:32:50;;;;;;;0.60;0.60;;;;;;;19.16;100.00;100059.45;107002;1285;58292;-83
2023/06/27 04:35:19;;;;;;;2.00;0.80;;;;;;;19.26;100.00;100059.39;106730;1286;58315;-83
2023/06/27 04:37:46;;;;;;;1.40;1.00;;;;;;;19.32;100.00;100059.82;106368;1289;74506;-83
2023/06/27 04:40:12;;;;;;;1.10;0.60;;;;;;;19.41;100.00;100062.73;106373;1288;58466;-85
2023/06/27 04:42:38;;;;;;;2.90;0.70;;;;;;;19.43;100.00;100058.39;106351;1288;58335;-84
2023/06/27 04:45:04;;;;;;;1.60;1.00;;;;;;;19.46;100.00;100059.59;106408;1288;58359;-84
2023/06/27 04:47:29;;;;;;;2.10;1.00;;;;;;;19.61;100.00;100056.92;106251;1289;58292;-84
2023/06/27 04:49:55;;;;;;;7.00;1.10;;;;;;;19.68;100.00;100055.59;106392;1288;58683;-83
2023/06/27 04:52:21;;;;;;;3.10;1.20;;;;;;;19.69;100.00;100061.42;106355;1289;58396;-85
2023/06/27 04:54:50;;;;;;;3.30;1.00;;;;;;;19.75;100.00;100064.98;106395;1288;58704;-86
2023/06/27 04:57:19;;;;;;;1.90;0.90;;;;;;;19.93;100.00;100061.90;106405;1288;61112;-86
2023/06/27 04:59:45;;;;;;;1.20;1.00;;;;;;;20.17;100.00;100057.52;106239;1291;73485;-86
2023/06/27 05:02:10;;;;;;;2.20;1.30;;;;;;;20.47;100.00;100060.98;106405;1288;58341;-85
2023/06/27 05:04:36;;;;;;;1.00;0.90;;;;;;;20.66;100.00;100060.46;106359;1288;58384;-86
2023/06/27 05:07:04;;;;;;;2.70;1.10;;;;;;;20.82;100.00;100056.69;106377;1288;58673;-84
2023/06/27 05:09:30;;;;;;;1.30;0.90;;;;;;;20.83;100.00;100053.65;106451;1288;58482;-85
2023/06/27 05:11:55;;;;;;;2.90;1.40;;;;;;;20.78;100.00;100057.73;106453;1288;58311;-85
2023/06/27 05:14:21;;;;;;;2.40;0.80;;;;;;;21.06;100.00;100057.84;106320;1283;58642;-86
2023/06/27 05:16:46;;;;;;;2.40;1.10;;;;;;;21.33;100.00;100053.34;106830;1283;58224;-85
2023/06/27 05:19:12;;;;;;;1.00;0.90;;;;;;;21.47;100.00;100054.70;107036;1283;60302;-84
2023/06/27 05:24:59;;;;;;;3.20;1.00;;;;;;;21.70;100.00;100056.23;107053;1286;73277;-84
2023/06/27 05:27:24;;;;;;;3.10;0.90;;;;;;;21.61;100.00;100052.30;106839;1283;59057;-83
2023/06/27 05:29:50;;;;;;;1.10;1.00;;;;;;;21.53;100.00;100051.37;106710;1283;58510;-84
2023/06/27 05:32:15;;;;;;;2.90;1.00;;;;;;;21.44;100.00;100046.72;107063;1283;58215;-82
2023/06/27 05:34:41;;;;;;;2.20;1.00;;;;;;;21.37;100.00;100048.37;107133;1285;58275;-84
2023/06/27 05:37:06;;;;;;;5.00;1.50;;;;;;;21.38;100.00;100052.48;107036;1283;73399;-83
2023/06/27 05:39:32;;;;;;;1.70;0.80;;;;;;;21.28;100.00;100051.00;107011;1283;58214;-84
2023/06/27 05:41:58;;;;;;;2.90;1.00;;;;;;;21.16;100.00;100052.89;107063;1283;58198;-84
2023/06/27 05:44:24;;;;;;;1.50;1.20;;;;;;;21.04;100.00;100059.23;107073;1283;58283;-84
2023/06/27 05:46:49;;;;;;;3.70;1.40;;;;;;;20.91;100.00;100059.63;107015;1283;58328;-83
2023/06/27 05:49:15;;;;;;;2.20;1.20;;;;;;;20.82;100.00;100060.83;106621;1289;58320;-83
2023/06/27 05:51:40;;;;;;;3.40;1.30;;;;;;;20.86;100.00;100055.92;106828;1286;58325;-86
2023/06/27 05:54:05;;;;;;;1.50;1.40;;;;;;;20.88;100.00;100056.95;106739;1286;58305;-85
2023/06/27 05:56:31;;;;;;;1.30;1.20;;;;;;;20.84;100.00;100059.71;106879;1285;58252;-84
2023/06/27 05:58:56;;;;;;;2.70;1.00;;;;;;;20.79;100.00;100057.42;106796;1286;58251;-84
2023/06/27 06:01:22;;;;;;;1.70;1.10;;;;;;;20.79;100.00;100057.69;106856;1285;58514;-83
2023/06/27 06:03:48;;;;;;;2.30;1.30;;;;;;;20.85;100.00;100056.55;106696;1286;59070;-84
2023/06/27 06:06:13;;;;;;;1.80;1.10;;;;;;;20.86;100.00;100060.73;106805;1285;58271;-83
2023/06/27 06:08:39;;;;;;;1.10;0.90;;;;;;;20.73;100.00;100061.09;106778;1286;58904;-84
2023/06/27 06:11:04;;;;;;;3.60;1.30;;;;;;;20.76;100.00;100060.88;106851;1285;58499;-84
2023/06/27 06:13:30;;;;;;;2.90;1.00;;;;;;;20.84;100.00;100062.71;106867;1285;58289;-85
2023/06/27 06:15:55;;;;;;;1.90;1.20;;;;;;;20.85;100.00;100063.41;106914;1285;58309;-86
2023/06/27 06:18:22;;;;;;;4.80;1.00;;;;;;;20.91;100.00;100067.13;106956;1286;58542;-85
2023/06/27 06:20:47;;;;;;;2.20;1.10;;;;;;;20.95;100.00;100070.79;106935;1286;59205;-85
2023/06/27 06:23:13;;;;;;;1.80;1.10;;;;;;;20.89;100.00;100071.38;106972;1285;58262;-84
2023/06/27 06:25:39;;;;;;;3.30;0.80;;;;;;;20.79;100.00;100075.11;106978;1286;58394;-85
2023/06/27 06:28:04;;;;;;;1.50;0.90;;;;;;;20.75;100.00;100070.85;107011;1286;58929;-85
2023/06/27 06:30:30;;;;;;;2.60;1.10;;;;;;;20.75;100.00;100071.63;106563;1284;60534;-87
2023/06/27 06:32:55;;;;;;;1.80;1.10;;;;;;;20.82;100.00;100067.33;106847;1288;58530;-87
2023/06/27 06:35:21;;;;;;;3.40;1.00;;;;;;;20.99;100.00;100067.41;106807;1285;58326;-90
2023/06/27 06:37:46;;;;;;;1.90;0.80;;;;;;;21.14;100.00;100064.71;106690;1286;58356;-84
2023/06/27 06:40:12;;;;;;;1.60;0.90;;;;;;;21.25;100.00;100063.83;106851;1285;58744;-86
2023/06/27 06:42:37;;;;;;;0.90;0.80;;;;;;;21.37;100.00;100067.40;106851;1285;61869;-86
2023/06/27 06:45:03;;;;;;;0.90;0.80;;;;;;;21.47;100.00;100065.85;106679;1285;58452;-86
2023/06/27 06:47:29;;;;;;;1.00;0.90;;;;;;;21.43;100.00;100065.80;106863;1286;58207;-85
2023/06/27 06:49:54;;;;;;;2.20;0.70;;;;;;;21.36;100.00;100066.27;106958;1285;58527;-86
2023/06/27 06:52:20;;;;;;;2.40;0.80;;;;;;;21.34;100.00;100061.05;106584;1285;59302;-85
2023/06/27 06:54:46;;;;;;;1.60;0.90;;;;;;;21.37;100.00;100057.77;107010;1285;74704;-84
2023/06/27 06:57:15;;;;;;;1.30;0.80;;;;;;;21.46;100.00;100057.27;106557;1286;58359;-85
2023/06/27 06:59:46;;;;;;;1.10;0.70;;;;;;;21.58;100.00;100056.69;106947;1284;72478;-84
2023/06/27 07:02:12;;;;;;;2.50;0.90;;;;;;;21.46;100.00;100056.26;106744;1285;62180;-89
2023/06/27 07:04:37;;;;;;;0.90;0.80;;;;;;;21.51;100.00;100055.45;107017;1286;58514;-85
2023/06/27 07:07:05;;;;;;;1.70;0.60;;;;;;;21.62;100.00;100058.14;107004;1286;58290;-85
2023/06/27 07:09:31;;;;;;;1.50;0.60;;;;;;;21.73;100.00;100063.94;106610;1284;58286;-86
2023/06/27 07:11:56;;;;;;;1.50;0.50;;;;;;;21.94;100.00;100068.29;106833;1285;58573;-87
2023/06/27 07:14:22;;;;;;;0.90;0.60;;;;;;;22.16;100.00;100074.96;107003;1285;58419;-87
2023/06/27 07:16:50;;;;;;;3.80;0.70;;;;;;;22.29;100.00;100076.19;106985;1286;58423;-86
2023/06/27 07:19:16;;;;;;;2.40;0.60;;;;;;;22.28;100.00;100085.39;106629;1286;58231;-86
2023/06/27 07:21:41;;;;;;;2.10;0.70;;;;;;;22.24;100.00;100085.70;106973;1285;58617;-85
2023/06/27 07:24:07;;;;;;;0.70;0.70;;;;;;;22.04;100.00;100087.31;106698;1286;58471;-86
2023/06/27 07:26:32;;;;;;;3.60;1.00;;;;;;;22.04;100.00;100091.72;106974;1284;60983;-86
2023/06/27 07:28:58;;;;;;;3.50;1.00;;;;;;;21.96;100.00;100089.90;106987;1285;58368;-84
2023/06/27 07:31:23;;;;;;;1.30;0.70;;;;;;;21.89;100.00;100088.61;107010;1286;58198;-86
2023/06/27 07:33:49;;;;;;;0.80;0.60;;;;;;;22.12;100.00;100089.11;106985;1285;58232;-87
2023/06/27 07:36:15;;;;;;;2.00;0.90;;;;;;;22.64;100.00;100083.91;106946;1285;58471;-87
2023/06/27 07:38:40;;;;;;;2.70;0.60;;;;;;;23.10;100.00;100076.58;107027;1284;58892;-86
2023/06/27 07:41:09;;;;;;;1.70;0.90;;;;;;;23.31;100.00;100078.02;106970;1285;58644;-85
2023/06/27 07:43:37;;;;;;;1.20;0.90;;;;;;;23.40;100.00;100081.34;106978;1284;72678;-85
2023/06/27 07:49:24;;;;;;;1.00;0.70;;;;;;;23.06;100.00;100088.12;106952;1285;59923;-85
2023/06/27 07:51:51;;;;;;;3.40;1.00;;;;;;;22.94;100.00;100088.74;106970;1285;58162;-85
2023/06/27 07:54:21;;;;;;;1.30;0.90;;;;;;;22.99;100.00;100091.23;106956;1286;58299;-85
2023/06/27 07:56:49;;;;;;;0.70;0.70;;;;;;;23.34;100.00;100084.81;106554;1285;73518;-84
2023/06/27 07:59:16;;;;;;;0.80;0.60;;;;;;;24.17;100.00;100090.51;106943;1284;59159;-85
2023/06/27 08:01:42;;;;;;;3.10;0.50;;;;;;;24.78;98.26;100088.09;106740;1286;60505;-85
2023/06/27 08:04:07;;;;;;;1.00;0.70;;;;;;;24.91;93.58;100094.99;107020;1284;58238;-82
2023/06/27 08:06:33;;;;;;;0.70;0.70;;;;;;;24.71;88.31;100101.29;106771;1286;58741;-85
2023/06/27 08:09:01;;;;;;;0.90;0.70;;;;;;;24.38;90.16;100097.90;106961;1285;58198;-84
2023/06/27 08:11:29;;;;;;;0.60;0.60;;;;;;;24.29;89.29;100098.67;107007;1285;58233;-85
2023/06/27 08:13:57;;;;;;;10.90;0.90;;;;;;;24.08;90.04;100103.23;106853;1285;59916;-85
2023/06/27 08:16:26;;;;;;;2.80;0.90;;;;;;;23.96;92.11;100101.98;106810;1286;74540;-85
2023/06/27 08:18:52;;;;;;;1.70;1.10;;;;;;;23.91;93.86;100102.27;106786;1286;74586;-84
2023/06/27 08:21:17;;;;;;;1.00;0.50;;;;;;;23.83;96.44;100101.48;106936;1285;58242;-84
2023/06/27 08:23:43;;;;;;;4.20;1.00;;;;;;;23.86;98.56;100104.05;106956;1285;58232;-86
2023/06/27 08:26:14;;;;;;;1.50;0.80;;;;;;;23.95;95.09;100103.84;106964;1285;58645;-84
2023/06/27 08:28:39;;;;;;;0.60;0.60;;;;;;;23.87;93.51;100100.36;106698;1285;73758;-85
2023/06/27 08:31:05;;;;;;;2.00;0.90;;;;;;;23.84;93.29;100099.45;106649;1286;58480;-83
2023/06/27 08:33:30;;;;;;;2.30;0.80;;;;;;;24.12;94.07;100097.89;106949;1284;58211;-86
2023/06/27 08:35:56;;;;;;;1.20;1.00;;;;;;;24.47;90.86;100097.01;106674;1284;58714;-85
2023/06/27 08:38:21;;;;;;;1.30;0.70;;;;;;;24.54;88.87;100099.16;107052;1285;58215;-85
2023/06/27 08:40:53;;;;;;;2.80;0.60;;;;;;;24.42;87.75;100098.16;106919;1284;58272;-85
2023/06/27 08:43:19;;;;;;;4.40;1.00;;;;;;;24.23;90.29;100098.72;106955;1285;73453;-85
2023/06/27 08:45:45;;;;;;;3.70;1.10;;;;;;;24.15;92.45;100103.98;106981;1284;58269;-85
2023/06/27 08:48:13;;;;;;;5.80;1.00;;;;;;;24.07;88.93;100102.58;106925;1285;58076;-85
2023/06/27 08:50:43;;;;;;;2.50;1.00;;;;;;;23.85;90.20;100101.98;106991;1285;73733;-86
2023/06/27 08:53:14;;;;;;;1.40;1.00;;;;;;;24.16;94.33;100099.69;106993;1284;74589;-85
2023/06/27 08:55:57;;;;;;;3.10;1.10;;;;;;;25.35;91.62;100092.83;106541;1284;72808;-86
2023/06/27 08:58:27;;;;;;;0.90;0.90;;;;;;;26.13;83.41;100103.59;106981;1285;60043;-84
2023/06/27 09:00:53;;;;;;;1.30;1.10;;;;;;;26.17;78.45;100109.86;106949;1285;60515;-86
2023/06/27 09:03:19;;;;;;;2.90;1.20;;;;;;;26.15;79.15;100109.13;106682;1284;349507;-84
2023/06/27 09:05:47;;;;;;;1.00;0.90;;;;;;;26.31;76.20;100104.80;107008;1284;58631;-86
2023/06/27 09:08:13;;;;;;;1.90;1.00;;;;;;;26.42;73.97;100113.13;106959;1284;73491;-83
2023/06/27 09:10:39;;;;;;;1.40;1.00;;;;;;;26.61;72.08;100108.70;106961;1286;58204;-87
2023/06/27 09:13:06;;;;;;;5.90;0.90;;;;;;;26.61;71.50;100113.42;106878;1285;58714;-86
2023/06/27 09:15:31;;;;;;;1.70;0.90;;;;;;;26.65;71.41;100114.96;106992;1285;58269;-87
2023/06/27 09:17:57;;;;;;;0.90;0.70;;;;;;;26.97;72.04;100119.27;106467;1285;58656;-87
2023/06/27 09:20:23;;;;;;;0.80;0.70;;;;;;;27.15;69.16;100117.21;106943;1285;58258;-85
2023/06/27 09:22:50;;;;;;;1.30;1.00;;;;;;;27.00;67.26;100118.59;106993;1285;58301;-86
2023/06/27 09:25:19;;;;;;;0.50;0.50;;;;;;;26.86;67.29;100120.67;106980;1285;58246;-85
2023/06/27 09:27:45;;;;;;;1.40;0.70;;;;;;;27.08;67.62;100118.48;106990;1284;74702;-86
2023/06/27 09:30:11;;;;;;;2.60;0.70;;;;;;;27.68;66.88;100112.48;106955;1285;58231;-87
2023/06/27 09:32:51;;;;;;;1.60;0.60;;;;;;;28.26;65.07;100107.59;106959;1284;58622;-86
2023/06/27 09:35:17;;;;;;;2.60;0.60;;;;;;;28.34;63.32;100113.31;106966;1285;60155;-84
2023/06/27 09:37:42;;;;;;;0.70;0.60;;;;;;;28.33;63.12;100113.39;107017;1284;58804;-85
2023/06/27 09:40:27;;;;;;;1.50;0.80;;;;;;;28.38;63.12;100113.73;106892;1285;58248;-86
2023/06/27 09:42:54;;;;;;;1.20;0.80;;;;;;;28.39;62.53;100116.52;106491;1286;73403;-84
2023/06/27 09:45:22;;;;;;;3.30;1.10;;;;;;;28.35;62.27;100120.68;106972;1284;73895;-85
2023/06/27 09:47:51;;;;;;;2.60;1.30;;;;;;;28.51;61.99;100123.67;106957;1284;59962;-84
2023/06/27 09:50:17;;;;;;;3.40;1.30;;;;;;;28.77;62.83;100123.16;106985;1284;61077;-82
2023/06/27 09:52:59;;;;;;;2.90;1.00;;;;;;;28.69;58.89;100128.62;106991;1285;73400;-85
2023/06/27 09:55:24;;;;;;;2.50;1.30;;;;;;;28.24;59.54;100123.75;107063;1284;74852;-86
2023/06/27 09:57:50;;;;;;;1.20;0.90;;;;;;;28.12;60.56;100129.16;106989;1284;58254;-82
2023/06/27 10:00:21;;;;;;;1.40;0.80;;;;;;;28.16;60.37;100137.02;106992;1285;58221;-83
2023/06/27 10:02:50;;;;;;;3.80;1.10;;;;;;;28.13;59.17;100133.52;107024;1284;61106;-82
2023/06/27 10:05:17;;;;;;;2.50;0.90;;;;;;;28.04;59.93;100130.33;106767;1286;74607;-83
2023/06/27 10:07:44;;;;;;;1.50;1.00;;;;;;;28.09;60.56;100125.83;106658;1284;58525;-83
2023/06/27 10:10:10;;;;;;;1.20;0.80;;;;;;;28.16;62.02;100122.38;107001;1285;72331;-82
2023/06/27 10:12:36;;;;;;;0.80;0.70;;;;;;;28.25;60.68;100124.06;106731;1285;58215;-83
2023/06/27 10:15:02;;;;;;;4.10;0.70;;;;;;;28.17;59.86;100119.29;107033;1285;58745;-83
2023/06/27 10:17:28;;;;;;;0.90;0.70;;;;;;;28.01;58.06;100118.38;107045;1284;58644;-83
2023/06/27 10:19:54;;;;;;;0.80;0.70;;;;;;;27.74;57.70;100119.89;107011;1284;58574;-82
2023/06/27 10:22:21;;;;;;;0.90;0.60;;;;;;;27.56;57.50;100113.06;106965;1285;58418;-84
2023/06/27 10:24:51;;;;;;;1.10;0.70;;;;;;;27.31;58.65;100116.70;106995;1285;58401;-83
2023/06/27 10:27:21;;;;;;;2.30;0.90;;;;;;;27.33;60.92;100116.01;106992;1284;59848;-83
2023/06/27 10:29:47;;;;;;;2.80;0.80;;;;;;;27.64;60.45;100112.79;106684;1285;72607;-84
2023/06/27 10:32:18;;;;;;;2.80;1.00;;;;;;;27.75;59.90;100111.02;106873;1285;58220;-84
2023/06/27 10:34:44;;;;;;;1.60;0.90;;;;;;;27.61;58.92;100112.77;106968;1285;73611;-84
2023/06/27 10:37:26;;;;;;;4.70;0.70;;;;;;;27.65;59.21;100113.42;106833;1285;58191;-83
2023/06/27 10:40:08;;;;;;;1.70;0.90;;;;;;;27.57;59.09;100118.92;106950;1284;60697;-85
2023/06/27 10:42:34;;;;;;;6.90;0.80;;;;;;;27.53;59.25;100124.75;106983;1285;74793;-86
2023/06/27 10:45:09;;;;;;;3.70;0.90;;;;;;;27.32;58.94;100129.52;106989;1285;58336;-83
2023/06/27 10:47:44;;;;;;;5.90;0.90;;;;;;;27.08;59.91;100138.18;106994;1284;73003;-84
2023/06/27 10:50:14;;;;;;;0.80;0.80;;;;;;;26.95;59.76;100141.55;106547;1285;59193;-84
2023/06/27 10:52:59;;;;;;;1.50;0.90;;;;;;;26.88;61.28;100141.00;106494;1288;60249;-82
2023/06/27 10:55:28;;;;;;;3.90;1.00;;;;;;;27.26;61.60;100132.80;106292;1289;74597;-83
2023/06/27 10:58:14;;;;;;;3.30;1.20;;;;;;;27.58;59.82;100136.88;106457;1288;74534;-83
2023/06/27 11:00:44;;;;;;;1.50;1.20;;;;;;;27.71;59.73;100140.73;106504;1288;73793;-83
2023/06/27 11:03:10;;;;;;;2.70;0.90;;;;;;;27.45;57.98;100149.93;106504;1288;60671;-82
2023/06/27 11:05:53;;;;;;;2.80;1.00;;;;;;;27.07;58.74;100156.90;106458;1288;58153;-83
2023/06/27 11:08:20;;;;;;;1.30;1.10;;;;;;;26.80;60.88;100155.15;106528;1288;73651;-82
2023/06/27 11:11:05;;;;;;;1.50;1.00;;;;;;;26.88;62.55;100151.04;106482;1288;74297;-83
2023/06/27 11:13:44;;;;;;;2.00;0.70;;;;;;;27.23;62.87;100154.28;106486;1288;73448;-82
2023/06/27 11:16:11;;;;;;;0.90;0.70;;;;;;;27.25;61.01;100149.00;106488;1288;60245;-83
2023/06/27 11:18:37;;;;;;;1.10;0.80;;;;;;;27.34;61.44;100150.40;106495;1288;59793;-83
2023/06/27 11:21:04;;;;;;;3.40;0.90;;;;;;;27.53;60.53;100148.33;106461;1288;58361;-82
2023/06/27 11:23:30;;;;;;;1.20;1.00;;;;;;;27.62;60.68;100145.92;106603;1284;58552;-82